Time;durP1;ratioP1;P1;durP2;ratioP2;P2;SDS_P1;SDS_P2;PMS_P1;PMS_P2;Temp;Humidity;BMP_temperature;BMP_pressure;BME280_temperature;BME280_humidity;BME280_pressure;Samples;Min_cycle;Max_cycle;Signal;HPM_P1;HPM_P2
2022/01/28 00:01:07;;;;;;;;;49.00;39.75;;;;;;;;5054607;28;45291;-77
2022/01/28 00:03:33;;;;;;;;;50.75;40.50;;;;;;;;5060354;28;45373;-76
2022/01/28 00:05:58;;;;;;;;;52.00;42.00;;;;;;;;5054413;28;45363;-79
2022/01/28 00:08:24;;;;;;;;;56.50;45.25;;;;;;;;5061087;28;45356;-79
2022/01/28 00:10:51;;;;;;;;;50.50;40.00;;;;;;;;5057364;28;45528;-79
2022/01/28 00:37:10;;;;;;;;;56.75;44.25;;;;;;;;5059797;28;45260;-79
2022/01/28 00:39:36;;;;;;;;;49.75;41.50;;;;;;;;5060977;28;45606;-79
2022/01/28 00:42:01;;;;;;;;;51.75;39.25;;;;;;;;5049400;28;45292;-79
2022/01/28 00:44:27;;;;;;;;;53.50;40.00;;;;;;;;5053647;28;45222;-79
2022/01/28 00:46:52;;;;;;;;;50.25;40.75;;;;;;;;5051535;28;45203;-77
2022/01/28 00:49:17;;;;;;;;;54.00;39.75;;;;;;;;5060819;28;45505;-77
2022/01/28 00:51:42;;;;;;;;;47.25;37.00;;;;;;;;5054443;28;45403;-77
2022/01/28 00:54:08;;;;;;;;;52.50;39.00;;;;;;;;5060512;28;44726;-79
2022/01/28 00:56:33;;;;;;;;;53.75;41.25;;;;;;;;5051072;28;45428;-79
2022/01/28 00:58:58;;;;;;;;;51.50;40.50;;;;;;;;5061324;28;47022;-79
2022/01/28 01:01:23;;;;;;;;;49.50;42.75;;;;;;;;5053634;28;45689;-77
2022/01/28 01:03:48;;;;;;;;;49.00;38.50;;;;;;;;5060399;28;45332;-77
2022/01/28 01:06:14;;;;;;;;;51.50;40.00;;;;;;;;5053446;28;45330;-78
2022/01/28 01:08:39;;;;;;;;;39.25;35.50;;;;;;;;5042144;28;47097;-79
2022/01/28 01:11:05;;;;;;;;;46.50;40.00;;;;;;;;5051969;28;48334;-77
2022/01/28 01:13:35;;;;;;;;;40.25;33.00;;;;;;;;5060185;28;45368;-77
2022/01/28 01:16:01;;;;;;;;;46.75;38.50;;;;;;;;5053923;28;45234;-77
2022/01/28 01:18:45;;;;;;;;;50.00;40.00;;;;;;;;5055620;28;45389;-79
2022/01/28 01:21:17;;;;;;;;;46.00;36.00;;;;;;;;5054317;28;45414;-78
2022/01/28 01:23:50;;;;;;;;;37.75;34.00;;;;;;;;5046501;28;45282;-77
2022/01/28 01:26:16;;;;;;;;;37.75;29.00;;;;;;;;5034397;28;45363;-77
2022/01/28 01:28:42;;;;;;;;;36.50;32.50;;;;;;;;5041562;28;45783;-77
2022/01/28 01:31:12;;;;;;;;;39.00;33.25;;;;;;;;5056807;28;45641;-77
2022/01/28 01:34:01;;;;;;;;;40.00;30.75;;;;;;;;5046883;28;45300;-76
2022/01/28 01:36:25;;;;;;;;;34.00;30.25;;;;;;;;5056687;28;45455;-77
2022/01/28 01:38:51;;;;;;;;;34.50;28.00;;;;;;;;5059740;28;45352;-76
2022/01/28 01:41:25;;;;;;;;;36.50;31.75;;;;;;;;5053389;28;46470;-76
2022/01/28 01:54:12;;;;;;;;;40.75;35.25;;;;;;;;5059501;28;45363;-77
2022/01/28 01:56:38;;;;;;;;;43.25;33.75;;;;;;;;5052893;28;45417;-77
2022/01/28 01:59:04;;;;;;;;;42.00;31.75;;;;;;;;5061170;28;45206;-77
2022/01/28 02:01:29;;;;;;;;;42.75;36.25;;;;;;;;5056387;28;47112;-76
2022/01/28 02:03:54;;;;;;;;;36.00;33.25;;;;;;;;5044403;28;45306;-76
2022/01/28 02:06:20;;;;;;;;;42.00;31.75;;;;;;;;5052698;28;45633;-77
2022/01/28 02:08:46;;;;;;;;;36.75;33.00;;;;;;;;5058112;28;45300;-76
2022/01/28 02:11:11;;;;;;;;;45.00;38.50;;;;;;;;5052532;28;45386;-76
2022/01/28 02:13:38;;;;;;;;;45.75;36.75;;;;;;;;5059139;28;45166;-77
2022/01/28 02:16:03;;;;;;;;;40.25;34.25;;;;;;;;5051777;28;45474;-77
2022/01/28 02:18:28;;;;;;;;;36.25;32.75;;;;;;;;5055009;28;45537;-77
2022/01/28 02:20:58;;;;;;;;;37.25;27.25;;;;;;;;5054557;28;45502;-77
2022/01/28 02:23:24;;;;;;;;;44.75;36.75;;;;;;;;5056284;28;45382;-76
2022/01/28 02:25:49;;;;;;;;;38.75;30.25;;;;;;;;5056032;28;45340;-77
2022/01/28 02:28:18;;;;;;;;;35.75;30.50;;;;;;;;5040875;28;45982;-77
2022/01/28 02:30:43;;;;;;;;;33.25;26.50;;;;;;;;5055922;28;45225;-77
2022/01/28 02:33:12;;;;;;;;;33.75;27.00;;;;;;;;5057630;28;45289;-76
2022/01/28 02:35:38;;;;;;;;;32.50;28.50;;;;;;;;5056716;28;45415;-77
2022/01/28 02:38:04;;;;;;;;;33.00;27.25;;;;;;;;5058762;28;45376;-77
2022/01/28 02:40:29;;;;;;;;;39.25;30.00;;;;;;;;5058567;28;45379;-77
2022/01/28 02:43:14;;;;;;;;;37.25;32.25;;;;;;;;5044059;28;45356;-77
2022/01/28 02:45:41;;;;;;;;;39.50;32.75;;;;;;;;5060561;28;45432;-77
2022/01/28 02:48:14;;;;;;;;;34.25;28.00;;;;;;;;5055286;28;45273;-77
2022/01/28 02:50:47;;;;;;;;;36.25;28.75;;;;;;;;5042868;28;47086;-77
2022/01/28 02:53:21;;;;;;;;;36.25;30.00;;;;;;;;5062252;28;45343;-77
2022/01/28 02:55:47;;;;;;;;;37.50;32.25;;;;;;;;5054273;28;45347;-76
2022/01/28 02:58:21;;;;;;;;;34.25;30.75;;;;;;;;5062338;28;45375;-77
2022/01/28 03:00:47;;;;;;;;;40.75;33.00;;;;;;;;5058308;28;45410;-79
2022/01/28 03:03:13;;;;;;;;;34.75;29.75;;;;;;;;5051870;28;45388;-77
2022/01/28 03:05:38;;;;;;;;;53.75;38.50;;;;;;;;5056991;28;45339;-76
2022/01/28 03:08:04;;;;;;;;;40.00;33.75;;;;;;;;5060716;28;45585;-77
2022/01/28 03:13:13;;;;;;;;;35.25;32.25;;;;;;;;5059790;28;45229;-77
2022/01/28 03:15:40;;;;;;;;;34.75;29.25;;;;;;;;5055514;28;45323;-77
2022/01/28 03:18:16;;;;;;;;;37.75;31.25;;;;;;;;5057327;28;45469;-77
2022/01/28 03:20:55;;;;;;;;;39.00;30.50;;;;;;;;5056683;28;46593;-77
2022/01/28 03:23:21;;;;;;;;;36.50;32.75;;;;;;;;5054779;28;45299;-76
2022/01/28 03:25:47;;;;;;;;;32.50;28.50;;;;;;;;5066046;28;45321;-77
2022/01/28 03:28:14;;;;;;;;;37.75;31.75;;;;;;;;5059971;28;45511;-77
2022/01/28 03:30:40;;;;;;;;;31.25;28.75;;;;;;;;5058977;28;46204;-76
2022/01/28 03:33:05;;;;;;;;;44.00;37.50;;;;;;;;5061053;28;45377;-76
2022/01/28 03:35:32;;;;;;;;;43.50;35.50;;;;;;;;5059418;28;45391;-77
2022/01/28 03:38:02;;;;;;;;;40.75;30.00;;;;;;;;5043443;28;45284;-76
2022/01/28 03:40:36;;;;;;;;;38.00;34.25;;;;;;;;5047132;28;47287;-77
2022/01/28 03:43:02;;;;;;;;;44.50;32.00;;;;;;;;5053982;28;45461;-77
2022/01/28 03:45:28;;;;;;;;;38.50;32.50;;;;;;;;5044276;28;45308;-77
2022/01/28 03:47:53;;;;;;;;;38.00;34.50;;;;;;;;5058702;28;45359;-76
2022/01/28 03:50:19;;;;;;;;;39.75;37.00;;;;;;;;5058901;28;45583;-76
2022/01/28 03:52:44;;;;;;;;;38.50;32.75;;;;;;;;5056154;28;45329;-76
2022/01/28 03:55:09;;;;;;;;;41.25;35.25;;;;;;;;5058167;28;45609;-76
2022/01/28 03:57:34;;;;;;;;;51.50;37.50;;;;;;;;5043127;28;46968;-77
2022/01/28 04:00:00;;;;;;;;;42.00;35.00;;;;;;;;5043499;28;47074;-77
2022/01/28 04:02:29;;;;;;;;;38.25;30.50;;;;;;;;5034649;28;44769;-77
2022/01/28 04:12:51;;;;;;;;;34.00;27.25;;;;;;;;5057729;28;45132;-76
2022/01/28 04:17:44;;;;;;;;;33.50;30.75;;;;;;;;5053914;28;45359;-76
2022/01/28 04:20:09;;;;;;;;;29.00;26.25;;;;;;;;5058783;28;46499;-76
2022/01/28 04:22:35;;;;;;;;;29.75;27.00;;;;;;;;5042265;28;45333;-76
2022/01/28 04:25:00;;;;;;;;;39.25;27.75;;;;;;;;5058761;28;45312;-76
2022/01/28 04:27:25;;;;;;;;;40.75;32.00;;;;;;;;5038613;28;45840;-76
2022/01/28 04:29:51;;;;;;;;;36.50;29.50;;;;;;;;5060107;28;45764;-76
2022/01/28 04:32:18;;;;;;;;;48.25;37.75;;;;;;;;5058956;28;45245;-77
2022/01/28 04:34:43;;;;;;;;;37.25;31.50;;;;;;;;5061232;28;45170;-76
2022/01/28 04:39:55;;;;;;;;;35.50;28.00;;;;;;;;5060965;28;45270;-76
2022/01/28 04:49:59;;;;;;;;;36.00;28.75;;;;;;;;5076378;28;45007;-77
2022/01/28 04:55:25;;;;;;;;;33.00;23.50;;;;;;;;5056323;28;45518;-76
2022/01/28 05:26:37;;;;;;;;;33.50;28.00;;;;;;;;5056432;28;45320;-78
2022/01/28 05:29:03;;;;;;;;;32.75;28.50;;;;;;;;5041498;28;46514;-78
2022/01/28 05:31:28;;;;;;;;;33.75;29.75;;;;;;;;5033792;28;47110;-78
2022/01/28 05:33:53;;;;;;;;;34.00;33.00;;;;;;;;5055821;28;45292;-77
2022/01/28 05:36:19;;;;;;;;;34.75;31.50;;;;;;;;5055753;28;45297;-78
2022/01/28 05:38:44;;;;;;;;;33.25;27.25;;;;;;;;5057520;28;46503;-78
2022/01/28 05:41:09;;;;;;;;;32.25;29.75;;;;;;;;5044744;28;47117;-78
2022/01/28 05:43:35;;;;;;;;;39.50;33.00;;;;;;;;5052842;28;45496;-77
2022/01/28 05:46:00;;;;;;;;;36.50;31.25;;;;;;;;5045110;28;45453;-78
2022/01/28 05:48:25;;;;;;;;;29.25;23.75;;;;;;;;5053561;28;46081;-78
2022/01/28 05:50:50;;;;;;;;;29.50;23.25;;;;;;;;5053018;28;46601;-78
2022/01/28 05:53:15;;;;;;;;;37.50;29.25;;;;;;;;5035265;28;45876;-78
2022/01/28 05:55:41;;;;;;;;;22.75;18.50;;;;;;;;5036166;28;45344;-77
2022/01/28 05:58:06;;;;;;;;;27.25;21.00;;;;;;;;5055043;28;47055;-78
2022/01/28 06:00:31;;;;;;;;;33.75;28.75;;;;;;;;5055436;28;46054;-77
2022/01/28 06:02:57;;;;;;;;;32.00;25.25;;;;;;;;5056680;28;45198;-77
2022/01/28 06:05:22;;;;;;;;;27.00;24.75;;;;;;;;5055032;28;45476;-78
2022/01/28 06:07:47;;;;;;;;;35.50;29.25;;;;;;;;5048762;28;45810;-77
2022/01/28 06:10:14;;;;;;;;;34.00;25.75;;;;;;;;5057129;28;45490;-77
2022/01/28 06:12:44;;;;;;;;;32.25;25.50;;;;;;;;5054405;28;45331;-78
2022/01/28 06:15:10;;;;;;;;;33.00;26.50;;;;;;;;5037514;28;44863;-78
2022/01/28 06:17:36;;;;;;;;;30.00;23.75;;;;;;;;5062427;28;45080;-77
2022/01/28 06:20:02;;;;;;;;;30.25;26.50;;;;;;;;5062358;28;45503;-78
2022/01/28 06:22:27;;;;;;;;;31.25;25.50;;;;;;;;5053351;28;45285;-77
2022/01/28 06:24:52;;;;;;;;;27.75;22.50;;;;;;;;5058406;28;45248;-77
2022/01/28 06:27:17;;;;;;;;;28.25;27.00;;;;;;;;5054238;28;45354;-81
2022/01/28 06:29:43;;;;;;;;;35.75;27.75;;;;;;;;5059096;28;45316;-78
2022/01/28 06:32:08;;;;;;;;;34.25;31.25;;;;;;;;5054413;28;45281;-79
2022/01/28 06:34:34;;;;;;;;;41.00;34.00;;;;;;;;5055804;28;45569;-78
2022/01/28 06:36:59;;;;;;;;;41.75;31.25;;;;;;;;5045691;28;46053;-79
2022/01/28 06:39:24;;;;;;;;;41.25;35.00;;;;;;;;5042047;28;47129;-77
2022/01/28 06:41:49;;;;;;;;;39.00;35.00;;;;;;;;5031505;28;45273;-78
2022/01/28 06:44:14;;;;;;;;;36.50;32.25;;;;;;;;5058720;28;45371;-78
2022/01/28 06:46:40;;;;;;;;;39.75;27.00;;;;;;;;5052719;28;45190;-77
2022/01/28 06:49:05;;;;;;;;;50.75;35.75;;;;;;;;5058570;28;45312;-79
2022/01/28 06:51:32;;;;;;;;;43.25;35.25;;;;;;;;5050443;28;45319;-81
2022/01/28 06:53:57;;;;;;;;;41.00;32.25;;;;;;;;5032029;28;45897;-79
2022/01/28 06:56:22;;;;;;;;;46.25;37.00;;;;;;;;5052834;28;45499;-80
2022/01/28 06:58:48;;;;;;;;;47.00;37.25;;;;;;;;5054262;28;45383;-80
2022/01/28 07:01:13;;;;;;;;;37.50;32.25;;;;;;;;5049479;28;45402;-79
2022/01/28 07:03:38;;;;;;;;;40.75;32.75;;;;;;;;5051911;28;45675;-82
2022/01/28 07:06:03;;;;;;;;;43.00;35.75;;;;;;;;5051530;28;45467;-81
2022/01/28 07:08:29;;;;;;;;;40.25;33.50;;;;;;;;5057785;28;48473;-79
2022/01/28 07:10:54;;;;;;;;;46.75;32.75;;;;;;;;5053199;28;45406;-79
2022/01/28 07:13:19;;;;;;;;;41.50;33.50;;;;;;;;5040438;28;45441;-79
2022/01/28 07:15:45;;;;;;;;;43.50;35.00;;;;;;;;5052945;28;45537;-79
2022/01/28 07:18:10;;;;;;;;;42.00;34.00;;;;;;;;5036508;28;47942;-78
2022/01/28 07:20:35;;;;;;;;;35.00;31.00;;;;;;;;5053844;28;45430;-79
2022/01/28 07:23:01;;;;;;;;;37.75;31.50;;;;;;;;5037689;28;45257;-79
2022/01/28 07:25:27;;;;;;;;;27.75;20.75;;;;;;;;5054957;28;45185;-78
2022/01/28 07:27:52;;;;;;;;;38.25;27.75;;;;;;;;5060473;28;46379;-78
2022/01/28 07:30:17;;;;;;;;;36.50;32.00;;;;;;;;5059317;28;45360;-80
2022/01/28 07:32:43;;;;;;;;;24.25;21.00;;;;;;;;5057191;28;45421;-79
2022/01/28 07:35:08;;;;;;;;;32.25;28.00;;;;;;;;5058734;28;45395;-79
2022/01/28 07:37:34;;;;;;;;;35.75;30.75;;;;;;;;5041685;28;47311;-80
2022/01/28 07:40:02;;;;;;;;;42.50;33.25;;;;;;;;5041293;28;45420;-78
2022/01/28 07:42:27;;;;;;;;;34.25;31.50;;;;;;;;5057930;28;45415;-78
2022/01/28 07:44:52;;;;;;;;;27.75;25.25;;;;;;;;5059785;28;45509;-76
2022/01/28 07:47:17;;;;;;;;;31.00;25.00;;;;;;;;5070942;28;45259;-77
2022/01/28 07:49:43;;;;;;;;;31.25;25.00;;;;;;;;5048843;28;45271;-78
2022/01/28 07:52:08;;;;;;;;;40.25;29.25;;;;;;;;5059312;28;45316;-77
2022/01/28 07:54:33;;;;;;;;;40.00;30.75;;;;;;;;5060556;28;45361;-77
2022/01/28 07:57:00;;;;;;;;;33.25;29.25;;;;;;;;5040838;28;47275;-77
2022/01/28 07:59:26;;;;;;;;;34.50;29.50;;;;;;;;5042328;28;45370;-77
2022/01/28 08:01:51;;;;;;;;;34.00;31.25;;;;;;;;5059125;28;45422;-79
2022/01/28 08:04:16;;;;;;;;;36.00;29.50;;;;;;;;5060453;28;45614;-76
2022/01/28 08:06:42;;;;;;;;;37.50;28.75;;;;;;;;5058521;28;46707;-77
2022/01/28 08:09:07;;;;;;;;;32.75;29.50;;;;;;;;5042039;28;45332;-75
2022/01/28 08:11:34;;;;;;;;;36.00;29.25;;;;;;;;5055048;28;45468;-77
2022/01/28 08:13:59;;;;;;;;;29.00;27.50;;;;;;;;5056256;28;45465;-76
2022/01/28 08:16:24;;;;;;;;;37.25;32.00;;;;;;;;5033540;28;47211;-77
2022/01/28 08:18:49;;;;;;;;;38.00;32.25;;;;;;;;5051344;28;45292;-76
2022/01/28 08:21:15;;;;;;;;;39.75;29.75;;;;;;;;5044569;28;45283;-77
2022/01/28 08:23:40;;;;;;;;;35.25;29.50;;;;;;;;5054598;28;45332;-79
2022/01/28 08:26:06;;;;;;;;;31.75;28.50;;;;;;;;5039246;28;47302;-79
2022/01/28 08:28:31;;;;;;;;;37.25;30.50;;;;;;;;5049486;28;45651;-76
2022/01/28 08:30:57;;;;;;;;;33.00;30.25;;;;;;;;5058102;28;45317;-77
2022/01/28 08:33:22;;;;;;;;;36.75;30.75;;;;;;;;5031141;28;46140;-79
2022/01/28 08:35:52;;;;;;;;;48.50;36.00;;;;;;;;5056525;28;45503;-78
2022/01/28 08:38:24;;;;;;;;;40.75;33.75;;;;;;;;5059749;28;45214;-76
2022/01/28 08:40:51;;;;;;;;;38.25;27.75;;;;;;;;5054681;28;45459;-76
2022/01/28 08:43:16;;;;;;;;;35.00;28.75;;;;;;;;5032117;28;46521;-76
2022/01/28 08:45:42;;;;;;;;;42.75;29.00;;;;;;;;5038908;28;48322;-77
2022/01/28 08:48:07;;;;;;;;;30.75;27.25;;;;;;;;5050015;28;46250;-77
2022/01/28 08:50:32;;;;;;;;;33.25;26.25;;;;;;;;5056503;28;45386;-76
2022/01/28 08:52:59;;;;;;;;;31.75;28.50;;;;;;;;5057276;28;45222;-76
2022/01/28 08:55:24;;;;;;;;;30.75;26.00;;;;;;;;5036978;28;47115;-76
2022/01/28 08:57:49;;;;;;;;;30.50;25.75;;;;;;;;5050200;28;45636;-76
2022/01/28 09:00:18;;;;;;;;;33.50;26.00;;;;;;;;5057518;28;45224;-76
2022/01/28 09:02:44;;;;;;;;;34.75;28.50;;;;;;;;5041855;28;47283;-76
2022/01/28 09:05:09;;;;;;;;;33.50;28.25;;;;;;;;5057789;28;45339;-76
2022/01/28 09:07:35;;;;;;;;;33.00;26.50;;;;;;;;5041988;28;45311;-76
2022/01/28 09:10:06;;;;;;;;;35.25;28.75;;;;;;;;5058933;28;45299;-76
2022/01/28 09:12:39;;;;;;;;;43.00;30.25;;;;;;;;5053368;28;45289;-76
2022/01/28 09:15:04;;;;;;;;;36.00;27.00;;;;;;;;5058078;28;45443;-76
2022/01/28 09:17:30;;;;;;;;;36.50;28.50;;;;;;;;5052596;28;45259;-76
2022/01/28 09:19:55;;;;;;;;;37.75;30.00;;;;;;;;5059280;28;45426;-76
2022/01/28 09:22:20;;;;;;;;;33.50;26.50;;;;;;;;5053904;28;45373;-76
2022/01/28 09:24:46;;;;;;;;;27.50;25.75;;;;;;;;5058967;28;45379;-76
2022/01/28 09:27:11;;;;;;;;;25.50;17.00;;;;;;;;5036232;28;45411;-76
2022/01/28 09:29:36;;;;;;;;;25.75;25.50;;;;;;;;5058069;28;45307;-76
2022/01/28 09:32:03;;;;;;;;;30.25;26.25;;;;;;;;5056709;28;45604;-76
2022/01/28 09:34:28;;;;;;;;;29.25;26.00;;;;;;;;5038985;28;47163;-76
2022/01/28 09:36:53;;;;;;;;;27.25;24.75;;;;;;;;5049384;28;45343;-76
2022/01/28 09:39:20;;;;;;;;;37.25;28.00;;;;;;;;5048552;28;45455;-76
2022/01/28 09:41:46;;;;;;;;;26.25;23.75;;;;;;;;5055752;28;44855;-76
2022/01/28 09:44:13;;;;;;;;;36.25;26.50;;;;;;;;5059429;28;45491;-75
2022/01/28 09:46:38;;;;;;;;;30.00;24.50;;;;;;;;5053727;28;45235;-75
2022/01/28 09:49:04;;;;;;;;;34.00;29.25;;;;;;;;5058550;28;44726;-78
2022/01/28 09:51:29;;;;;;;;;28.25;26.75;;;;;;;;5031293;28;45754;-77
2022/01/28 09:53:54;;;;;;;;;29.75;22.50;;;;;;;;5059388;28;45600;-75
2022/01/28 09:56:20;;;;;;;;;35.25;26.25;;;;;;;;5049578;28;45572;-75
2022/01/28 09:58:46;;;;;;;;;27.25;22.75;;;;;;;;5051095;28;45395;-75
2022/01/28 10:01:11;;;;;;;;;24.50;24.50;;;;;;;;5052615;28;45162;-75
2022/01/28 10:03:36;;;;;;;;;31.75;26.75;;;;;;;;5048309;28;48009;-78
2022/01/28 10:06:02;;;;;;;;;39.25;27.75;;;;;;;;5051163;28;45299;-76
2022/01/28 10:08:28;;;;;;;;;27.25;20.50;;;;;;;;5059445;28;45328;-76
2022/01/28 10:10:54;;;;;;;;;32.50;25.50;;;;;;;;5053232;28;45448;-75
2022/01/28 10:13:28;;;;;;;;;27.25;24.25;;;;;;;;5054704;28;45080;-76
2022/01/28 10:15:56;;;;;;;;;30.75;28.75;;;;;;;;5054126;28;45363;-76
2022/01/28 10:18:33;;;;;;;;;36.00;26.00;;;;;;;;5047430;28;45488;-76
2022/01/28 10:20:59;;;;;;;;;38.25;33.50;;;;;;;;5054811;28;45226;-76
2022/01/28 10:23:24;;;;;;;;;37.25;28.00;;;;;;;;5057224;28;45327;-76
2022/01/28 10:25:56;;;;;;;;;43.50;31.00;;;;;;;;5056317;28;45288;-76
2022/01/28 10:28:21;;;;;;;;;28.25;24.25;;;;;;;;5053153;28;45428;-76
2022/01/28 10:30:46;;;;;;;;;35.00;30.25;;;;;;;;5055381;28;47409;-76
2022/01/28 10:33:12;;;;;;;;;33.75;32.50;;;;;;;;5050410;28;46127;-76
2022/01/28 10:35:38;;;;;;;;;39.00;27.00;;;;;;;;5056567;28;45342;-76
2022/01/28 10:38:04;;;;;;;;;31.00;27.00;;;;;;;;5058940;28;45175;-76
2022/01/28 10:40:29;;;;;;;;;34.25;28.00;;;;;;;;5038955;28;46045;-76
2022/01/28 10:42:54;;;;;;;;;36.75;28.75;;;;;;;;5054867;28;46296;-76
2022/01/28 10:45:20;;;;;;;;;32.00;28.50;;;;;;;;5040269;28;45360;-76
2022/01/28 10:47:47;;;;;;;;;32.75;26.75;;;;;;;;5032999;28;45284;-76
2022/01/28 10:50:31;;;;;;;;;34.25;30.50;;;;;;;;5034691;28;45677;-76
2022/01/28 10:53:17;;;;;;;;;36.00;29.75;;;;;;;;5055052;28;46516;-76
2022/01/28 10:55:54;;;;;;;;;36.00;26.00;;;;;;;;5025738;28;45539;-76
2022/01/28 10:58:20;;;;;;;;;24.75;23.50;;;;;;;;5048165;28;45347;-76
2022/01/28 11:00:46;;;;;;;;;29.75;27.25;;;;;;;;5054351;28;45561;-76
2022/01/28 11:03:13;;;;;;;;;30.25;28.00;;;;;;;;5040389;28;48168;-76
2022/01/28 11:05:39;;;;;;;;;22.75;21.50;;;;;;;;5057431;28;45384;-76
2022/01/28 11:08:06;;;;;;;;;28.50;21.75;;;;;;;;5040574;28;45228;-76
2022/01/28 11:10:32;;;;;;;;;30.50;24.50;;;;;;;;5058705;28;45623;-75
2022/01/28 11:12:58;;;;;;;;;28.75;23.00;;;;;;;;5054567;28;45259;-76
2022/01/28 11:15:23;;;;;;;;;28.00;24.25;;;;;;;;5041652;28;45401;-75
2022/01/28 11:17:49;;;;;;;;;31.00;25.75;;;;;;;;5058814;28;45498;-76
2022/01/28 11:20:20;;;;;;;;;26.75;24.50;;;;;;;;5041280;28;46813;-76
2022/01/28 11:22:55;;;;;;;;;23.25;23.25;;;;;;;;5058255;28;45671;-76
2022/01/28 11:25:39;;;;;;;;;27.00;23.50;;;;;;;;5059648;28;45496;-76
2022/01/28 11:28:09;;;;;;;;;29.00;26.00;;;;;;;;5040506;28;45261;-76
2022/01/28 11:30:35;;;;;;;;;28.25;23.75;;;;;;;;5058887;28;45612;-76
2022/01/28 11:33:02;;;;;;;;;28.00;22.00;;;;;;;;5052126;28;45249;-75
2022/01/28 11:35:30;;;;;;;;;27.50;24.00;;;;;;;;5058921;28;45324;-75
2022/01/28 11:38:01;;;;;;;;;32.00;24.25;;;;;;;;5061085;28;45619;-76
2022/01/28 11:40:26;;;;;;;;;27.25;22.25;;;;;;;;5040767;28;46108;-75
2022/01/28 11:43:12;;;;;;;;;28.50;22.75;;;;;;;;5056881;28;46450;-75
2022/01/28 11:45:40;;;;;;;;;30.00;22.75;;;;;;;;5043057;28;46109;-75
2022/01/28 11:48:05;;;;;;;;;22.25;16.75;;;;;;;;5055971;28;45305;-75
2022/01/28 11:50:31;;;;;;;;;28.00;22.50;;;;;;;;5057728;28;45515;-76
2022/01/28 11:52:56;;;;;;;;;25.00;23.25;;;;;;;;5032024;28;47138;-76
2022/01/28 11:55:23;;;;;;;;;26.50;16.00;;;;;;;;5040206;28;45292;-75
2022/01/28 11:57:59;;;;;;;;;28.25;21.50;;;;;;;;5056442;28;45309;-75
2022/01/28 12:00:29;;;;;;;;;25.00;22.00;;;;;;;;5040929;28;46171;-76
2022/01/28 12:02:54;;;;;;;;;28.25;24.50;;;;;;;;5056981;28;45506;-77
2022/01/28 12:05:31;;;;;;;;;32.75;22.50;;;;;;;;5058913;28;45183;-76
2022/01/28 12:07:58;;;;;;;;;24.75;21.00;;;;;;;;5057567;28;45503;-76
2022/01/28 12:10:24;;;;;;;;;35.00;23.00;;;;;;;;5057524;28;45492;-76
2022/01/28 12:12:58;;;;;;;;;23.50;19.25;;;;;;;;5033117;28;47404;-75
2022/01/28 12:15:25;;;;;;;;;22.75;18.50;;;;;;;;5058904;28;45348;-74
2022/01/28 12:17:51;;;;;;;;;22.75;21.75;;;;;;;;5055428;28;45450;-74
2022/01/28 12:20:21;;;;;;;;;18.75;16.50;;;;;;;;5058582;28;45443;-74
2022/01/28 12:23:03;;;;;;;;;24.00;17.75;;;;;;;;5059037;28;46065;-75
2022/01/28 12:25:34;;;;;;;;;31.00;24.50;;;;;;;;5058480;28;45381;-75
2022/01/28 12:28:20;;;;;;;;;17.75;13.50;;;;;;;;5051732;28;45479;-75
2022/01/28 12:30:46;;;;;;;;;22.00;19.25;;;;;;;;5040107;28;46067;-75
2022/01/28 12:33:12;;;;;;;;;25.75;21.25;;;;;;;;5050155;28;46303;-74
2022/01/28 12:35:38;;;;;;;;;27.00;21.50;;;;;;;;5056552;28;45799;-74
2022/01/28 12:38:04;;;;;;;;;21.25;20.25;;;;;;;;5058690;28;45300;-75
2022/01/28 12:40:36;;;;;;;;;23.50;17.50;;;;;;;;5042197;28;45994;-75
2022/01/28 12:43:02;;;;;;;;;25.25;23.50;;;;;;;;5041792;28;46440;-76
2022/01/28 12:45:27;;;;;;;;;16.50;11.00;;;;;;;;5057718;28;45538;-76
2022/01/28 12:47:53;;;;;;;;;20.25;19.00;;;;;;;;5056242;28;45379;-75
2022/01/28 12:50:19;;;;;;;;;19.50;19.25;;;;;;;;5057901;28;45259;-77
2022/01/28 12:52:45;;;;;;;;;19.50;14.00;;;;;;;;5042149;28;46855;-75
2022/01/28 12:55:12;;;;;;;;;25.00;22.50;;;;;;;;5057973;28;45245;-75
2022/01/28 12:57:41;;;;;;;;;28.75;22.75;;;;;;;;5055767;28;45237;-75
2022/01/28 13:00:07;;;;;;;;;22.25;19.50;;;;;;;;5058449;28;45354;-75
2022/01/28 13:02:33;;;;;;;;;20.75;15.00;;;;;;;;5055032;28;45444;-74
2022/01/28 13:09:52;;;;;;;;;23.00;19.25;;;;;;;;5056345;28;45296;-75
2022/01/28 13:12:22;;;;;;;;;24.00;19.25;;;;;;;;5038596;28;46880;-75
2022/01/28 13:14:47;;;;;;;;;29.25;24.50;;;;;;;;5059045;28;45628;-75
2022/01/28 13:17:17;;;;;;;;;20.75;17.00;;;;;;;;5057040;28;45557;-75
2022/01/28 13:19:43;;;;;;;;;24.25;17.00;;;;;;;;5040982;28;46290;-75
2022/01/28 13:22:08;;;;;;;;;25.75;21.50;;;;;;;;5056805;28;46295;-77
2022/01/28 13:24:33;;;;;;;;;23.75;20.50;;;;;;;;5059516;28;45372;-77
2022/01/28 13:27:08;;;;;;;;;21.75;17.75;;;;;;;;5057102;28;45454;-76
2022/01/28 13:29:33;;;;;;;;;28.25;23.00;;;;;;;;5051414;28;45304;-76
2022/01/28 13:32:03;;;;;;;;;19.00;19.00;;;;;;;;5050525;28;45343;-75
2022/01/28 13:34:41;;;;;;;;;21.75;21.25;;;;;;;;5040347;28;45580;-75
2022/01/28 13:37:08;;;;;;;;;24.75;18.00;;;;;;;;5056367;28;45469;-76
2022/01/28 13:39:40;;;;;;;;;21.25;18.00;;;;;;;;5049754;28;45328;-75
2022/01/28 13:42:09;;;;;;;;;22.25;16.50;;;;;;;;5049906;28;45070;-75
2022/01/28 13:44:37;;;;;;;;;33.75;26.25;;;;;;;;5050971;28;45435;-75
2022/01/28 13:47:03;;;;;;;;;27.75;21.25;;;;;;;;5050446;28;45216;-75
2022/01/28 13:49:33;;;;;;;;;30.25;22.25;;;;;;;;5059252;28;45273;-75
2022/01/28 13:52:16;;;;;;;;;24.75;18.75;;;;;;;;5034556;28;47092;-76
2022/01/28 13:54:41;;;;;;;;;23.75;19.00;;;;;;;;5050636;28;45915;-75
2022/01/28 13:57:08;;;;;;;;;22.50;20.00;;;;;;;;5050421;28;45289;-76
2022/01/28 13:59:35;;;;;;;;;16.00;15.25;;;;;;;;5058463;28;45527;-76
2022/01/28 14:02:00;;;;;;;;;21.50;18.00;;;;;;;;5033910;28;47367;-76
2022/01/28 14:04:35;;;;;;;;;23.75;17.50;;;;;;;;5058661;28;45371;-75
2022/01/28 14:07:20;;;;;;;;;20.50;18.25;;;;;;;;5050697;28;45467;-75
2022/01/28 14:09:56;;;;;;;;;79.75;58.25;;;;;;;;5056077;28;45313;-75
2022/01/28 14:12:22;;;;;;;;;25.75;19.75;;;;;;;;5050502;28;46312;-75
2022/01/28 14:14:48;;;;;;;;;26.25;21.25;;;;;;;;5056072;28;45412;-75
2022/01/28 14:17:14;;;;;;;;;21.50;20.75;;;;;;;;5030547;28;45562;-76
2022/01/28 14:19:42;;;;;;;;;21.00;19.25;;;;;;;;5058301;28;45324;-75
2022/01/28 14:22:08;;;;;;;;;23.75;22.00;;;;;;;;5034627;28;47598;-76
2022/01/28 14:24:35;;;;;;;;;22.50;22.25;;;;;;;;5058372;28;45352;-76
2022/01/28 14:32:02;;;;;;;;;25.50;21.25;;;;;;;;5051358;28;45294;-76
2022/01/28 14:34:27;;;;;;;;;24.75;17.50;;;;;;;;5057639;28;45313;-75
2022/01/28 14:36:52;;;;;;;;;26.75;23.25;;;;;;;;5055172;28;45218;-75
2022/01/28 14:39:18;;;;;;;;;20.25;20.25;;;;;;;;5061659;28;45612;-75
2022/01/28 14:41:43;;;;;;;;;29.00;21.25;;;;;;;;5052702;28;45416;-75
2022/01/28 14:44:09;;;;;;;;;25.00;20.50;;;;;;;;5061547;28;45469;-77
2022/01/28 14:46:35;;;;;;;;;19.00;17.50;;;;;;;;5055317;28;45281;-76
2022/01/28 14:49:04;;;;;;;;;16.25;16.25;;;;;;;;5062450;28;45239;-73
2022/01/28 14:51:29;;;;;;;;;19.75;16.50;;;;;;;;5056671;28;46689;-76
2022/01/28 14:53:54;;;;;;;;;17.25;17.25;;;;;;;;5061828;28;45459;-76
2022/01/28 14:56:19;;;;;;;;;19.25;19.25;;;;;;;;5055519;28;45306;-75
2022/01/28 14:58:46;;;;;;;;;22.50;18.00;;;;;;;;5062088;28;45434;-76
2022/01/28 15:01:11;;;;;;;;;23.75;22.50;;;;;;;;5055244;28;45570;-76
2022/01/28 15:03:36;;;;;;;;;38.50;30.25;;;;;;;;5061198;28;45428;-75
2022/01/28 15:06:02;;;;;;;;;41.00;33.00;;;;;;;;5037002;28;45598;-76
2022/01/28 15:08:28;;;;;;;;;46.00;36.00;;;;;;;;5057784;28;45336;-75
2022/01/28 15:10:54;;;;;;;;;54.00;43.75;;;;;;;;5054426;28;47060;-76
2022/01/28 15:13:20;;;;;;;;;26.50;22.00;;;;;;;;5057793;28;45163;-76
2022/01/28 15:15:45;;;;;;;;;33.00;26.75;;;;;;;;5057502;28;45948;-76
2022/01/28 15:18:10;;;;;;;;;26.75;21.50;;;;;;;;5057974;28;46846;-76
2022/01/28 15:20:38;;;;;;;;;39.50;31.75;;;;;;;;5038235;28;47261;-76
2022/01/28 15:23:03;;;;;;;;;26.00;21.00;;;;;;;;5060460;28;45309;-76
2022/01/28 15:25:28;;;;;;;;;30.50;26.00;;;;;;;;5041473;28;45265;-76
2022/01/28 15:27:54;;;;;;;;;22.75;20.50;;;;;;;;5052828;28;45355;-76
2022/01/28 15:38:02;;;;;;;;;38.75;34.50;;;;;;;;5061111;28;45920;-75
2022/01/28 15:40:27;;;;;;;;;24.00;19.50;;;;;;;;5057753;28;45903;-77
2022/01/28 15:42:55;;;;;;;;;26.50;25.00;;;;;;;;5055605;28;45408;-77
2022/01/28 15:45:21;;;;;;;;;29.00;25.75;;;;;;;;5044132;28;45275;-77
2022/01/28 15:47:46;;;;;;;;;27.25;24.50;;;;;;;;5056744;28;45327;-77
2022/01/28 15:50:13;;;;;;;;;50.50;39.25;;;;;;;;5058649;28;45622;-76
2022/01/28 15:52:39;;;;;;;;;30.25;25.75;;;;;;;;5051345;28;45418;-77
2022/01/28 15:55:05;;;;;;;;;71.50;52.75;;;;;;;;5060108;28;45407;-77
2022/01/28 15:57:31;;;;;;;;;21.00;18.50;;;;;;;;5054986;28;45277;-75
2022/01/28 15:59:56;;;;;;;;;26.25;23.25;;;;;;;;5060279;28;45686;-75
2022/01/28 16:02:21;;;;;;;;;30.75;24.25;;;;;;;;5058479;28;45297;-75